Latest Weather Observations for Griffith

IDN60801

Issued at 4:32 pm EST Thursday 3 September 2015 (issued every 30 minutes, with the page automatically refreshed every 10 minutes)

About weather observations | Map of weather stations | Latest weather observations for NSW | Other Formats
Station Details ID: 075041 Name: GRIFFITH AIRPORT AWS Lat: -34.25 Lon: 146.07 Height: 134.0 m
Data from the previous 72 hours. | See also: Recent months at Griffith
Date/Time
EST
Temp
°C
App
Temp
°C
Dew
Point
Rel
Hum
%
Delta-T
°C
Wind Press
QNH
hPa
Press
MSL
hPa
Rain
since 9 am
mm
Dir
 
Spd
km/h
Gust
km/h
Spd
kts
Gust
kts
03/04:30pm 15.6 11.7 9.3 66 3.3 SW 20 26 11 14 1014.4 1014.4 0.0
03/04:00pm 15.7 11.0 9.1 65 3.4 SW 24 32 13 17 1013.9 1013.9 0.0
03/03:30pm 15.6 11.3 9.3 66 3.3 SSW 22 30 12 16 1013.7 1013.7 0.0
03/03:00pm 15.1 11.0 8.8 66 3.2 SSW 20 30 11 16 1013.3 1013.3 0.0
03/02:30pm 15.1 11.2 8.8 66 3.2 SSW 19 28 10 15 1013.1 1013.1 0.0
03/02:00pm 14.7 10.2 8.6 67 3.1 S 22 33 12 18 1012.6 1012.6 0.0
03/01:30pm 13.6 10.1 10.2 80 1.8 S 19 35 10 19 1012.4 1012.4 0.0
03/01:28pm 13.4 9.8 10.0 80 1.8 S 19 35 10 19 1012.4 1012.4 0.0
03/01:00pm 12.4 8.7 11.6 95 0.4 SW 22 30 12 16 1012.2 1012.2 0.0
03/12:30pm 11.5 8.1 11.3 99 0.1 WSW 20 26 11 14 1011.9 1011.9 0.0
03/12:00pm 10.5 7.1 10.5 100 0.0 WSW 19 24 10 13 1011.7 1011.7 0.0
03/11:44am 10.3 6.6 10.3 100 0.0 WSW 20 26 11 14 1011.6 1011.6 0.0
03/11:30am 10.0 6.3 10.0 100 0.0 WSW 20 28 11 15 1011.7 1011.7 0.0
03/11:16am 10.1 5.9 9.9 99 0.1 WSW 22 30 12 16 1011.5 1011.5 0.0
03/11:00am 10.2 6.1 10.0 99 0.1 WSW 22 28 12 15 1011.2 1011.2 0.0
03/10:30am 10.5 6.5 10.3 99 0.1 WSW 22 28 12 15 1011.0 1011.0 0.0
03/10:00am 9.9 5.3 9.8 99 0.1 W 24 30 13 16 1010.8 1010.8 0.0
03/09:30am 10.2 6.7 10.2 100 0.0 W 19 26 10 14 1010.3 1010.3 0.0
03/09:00am 9.4 6.1 9.4 100 0.0 W 17 20 9 11 1010.1 1010.1 16.8
03/08:44am 9.2 5.8 9.2 100 0.0 W 17 20 9 11 1009.8 1009.8 16.8
03/08:30am 8.9 6.2 8.9 100 0.0 W 13 17 7 9 1009.6 1009.6 16.8
03/08:00am 8.5 5.3 8.5 100 0.0 WSW 15 20 8 11 1009.2 1009.1 16.8
03/07:50am 8.5 4.9 8.5 100 0.0 WSW 17 20 9 11 1009.0 1008.9 16.8
03/07:30am 8.3 5.1 8.3 100 0.0 W 15 19 8 10 1008.6 1008.5 16.8
03/07:00am 8.1 5.2 8.1 100 0.0 W 13 17 7 9 1007.8 1007.8 16.8
03/06:54am 8.1 5.6 8.1 100 0.0 W 11 15 6 8 1007.7 1007.7 16.8
03/06:30am 8.1 5.6 8.1 100 0.0 WSW 11 15 6 8 1007.4 1007.4 16.8
03/06:00am 8.2 5.3 8.2 100 0.0 W 13 19 7 10 1006.8 1006.8 16.8
03/05:57am 8.2 5.3 8.2 100 0.0 W 13 19 7 10 1006.9 1006.9 16.8
03/05:32am 8.4 5.6 8.4 100 0.0 W 13 19 7 10 1006.5 1006.5 16.8
03/05:30am 8.4 5.6 8.4 100 0.0 W 13 19 7 10 1006.4 1006.4 16.8
03/05:19am 8.4 5.6 8.4 100 0.0 W 13 17 7 9 1006.3 1006.3 16.8
03/05:00am 8.2 6.6 8.2 100 0.0 WSW 6 9 3 5 1005.9 1005.9 16.6
03/04:30am 8.1 6.3 8.1 100 0.0 W 7 9 4 5 1005.7 1005.7 16.6
03/04:00am 7.8 6.0 7.8 100 0.0 NW 7 7 4 4 1005.6 1005.6 16.6
03/03:30am 8.0 5.8 8.0 100 0.0 NW 9 11 5 6 1005.6 1005.6 16.6
03/03:00am 8.1 6.0 8.1 100 0.0 NNW 9 9 5 5 1005.8 1005.8 16.6
03/02:58am 8.0 5.8 8.0 100 0.0 NNW 9 9 5 5 1005.8 1005.8 16.6
03/02:34am 6.5 4.3 6.4 99 0.0 NNW 7 9 4 5 1006.0 1006.0 16.6
03/02:30am 6.6 4.7 6.5 99 0.0 NNW 6 9 3 5 1006.0 1006.0 16.6
03/02:24am 6.6 4.5 6.5 99 0.0 NNW 7 11 4 6 1006.1 1006.1 16.6
03/02:00am 7.2 4.8 7.1 99 0.0 N 9 11 5 6 1006.3 1006.3 16.6
03/01:30am 7.8 5.6 7.7 99 0.0 NNW 9 11 5 6 1006.1 1006.1 16.6
03/01:00am 8.8 7.2 8.7 99 0.0 NNW 7 9 4 5 1006.1 1006.1 16.6
03/12:30am 9.7 7.2 9.6 99 0.1 NW 13 17 7 9 1006.1 1006.1 16.6
03/12:00am 9.6 7.8 9.5 99 0.1 NNW 9 11 5 6 1006.0 1006.0 16.6
 
Date/Time
EST
Temp
°C
App
Temp
°C
Dew
Point
Rel
Hum
%
Delta-T
°C
Wind Press
QNH
hPa
Press
MSL
hPa
Rain
since 9 am
mm
Dir
 
Spd
km/h
Gust
km/h
Spd
kts
Gust
kts
02/11:30pm 9.9 8.8 9.8 99 0.1 NW 6 7 3 4 1005.9 1005.9 16.6
02/11:00pm 10.0 8.9 9.9 99 0.1 NNW 6 9 3 5 1005.7 1005.7 16.6
02/10:30pm 10.4 8.0 10.2 99 0.1 SSW 13 15 7 8 1005.6 1005.6 16.6
02/10:00pm 10.7 8.0 10.5 99 0.1 WSW 15 24 8 13 1005.2 1005.2 16.6
02/09:34pm 10.9 5.7 10.1 95 0.4 NE 28 50 15 27 1003.5 1003.5 16.6
02/09:30pm 11.1 7.4 10.0 93 0.6 NNE 20 39 11 21 1004.4 1004.4 16.6
02/09:29pm 11.2 7.6 9.8 91 0.7 NNE 19 33 10 18 1004.7 1004.7 16.6
02/09:00pm 10.7 8.4 10.5 99 0.1 ENE 13 19 7 10 1006.7 1006.7 15.8
02/08:32pm 11.0 8.5 11.0 100 0.0 WSW 15 20 8 11 1007.8 1007.8 13.4
02/08:30pm 11.0 8.1 11.0 100 0.0 WSW 17 22 9 12 1007.9 1007.9 13.2
02/08:28pm 11.0 8.1 11.0 100 0.0 WSW 17 22 9 12 1007.9 1007.9 13.0
02/08:00pm 11.2 7.8 11.2 100 0.0 WSW 20 26 11 14 1007.6 1007.6 10.2
02/07:53pm 11.3 7.5 11.3 100 0.0 WSW 22 33 12 18 1007.4 1007.4 8.6
02/07:30pm 11.5 6.2 11.3 99 0.1 WSW 30 44 16 24 1007.5 1007.5 6.8
02/07:27pm 11.6 6.7 11.4 99 0.1 WSW 28 44 15 24 1007.4 1007.4 6.8
02/07:00pm 12.1 9.1 11.9 99 0.1 W 19 24 10 13 1007.8 1007.8 5.0
02/06:30pm 12.5 11.9 12.2 98 0.2 S 7 13 4 7 1006.6 1006.6 2.2
02/06:00pm 12.5 10.2 11.6 94 0.5 ESE 15 17 8 9 1005.7 1005.7 2.0
02/05:30pm 12.8 10.8 11.5 92 0.7 E 13 15 7 8 1005.7 1005.7 2.0
02/05:00pm 13.4 10.8 10.6 83 1.5 NE 15 22 8 12 1006.3 1006.3 2.0
02/04:30pm 14.0 9.6 8.8 71 2.6 NNE 22 32 12 17 1006.6 1006.6 0.6
02/04:00pm 16.6 13.4 8.6 59 4.1 NE 15 20 8 11 1006.2 1006.2 0.0
02/03:30pm 17.1 13.6 8.8 58 4.3 E 17 22 9 12 1005.6 1005.6 0.0
02/03:00pm 17.6 14.6 7.9 53 5.0 NNE 13 19 7 10 1007.0 1007.0 0.0
02/02:30pm 18.1 14.9 8.4 53 5.0 NNE 15 22 8 12 1006.9 1006.9 0.0
02/02:00pm 18.7 12.9 8.1 50 5.5 NE 28 43 15 23 1007.1 1007.1 0.0
02/01:30pm 19.1 12.8 7.5 47 5.9 NE 30 39 16 21 1007.8 1007.8 0.0
02/01:00pm 19.3 14.3 9.5 53 5.2 NE 26 35 14 19 1009.0 1008.9 0.0
02/12:30pm 18.5 12.8 8.5 52 5.2 NE 28 35 15 19 1009.6 1009.6 0.0
02/12:00pm 17.7 12.3 8.0 53 5.0 NE 26 35 14 19 1010.3 1010.3 0.0
02/11:30am 16.4 11.1 6.8 53 4.8 NNE 24 33 13 18 1011.3 1011.3 0.0
02/11:00am 16.2 10.6 7.2 55 4.5 NE 26 35 14 19 1011.8 1011.8 0.0
02/10:30am 16.2 9.6 6.1 51 4.9 NNE 30 39 16 21 1012.1 1012.1 0.0
02/10:00am 15.8 8.7 5.4 50 5.0 NE 32 39 17 21 1012.6 1012.6 0.0
02/09:30am 15.8 9.4 5.4 50 5.0 NNE 28 41 15 22 1013.1 1013.1 0.0
02/09:00am 15.0 10.8 5.8 54 4.4 NNE 17 28 9 15 1013.4 1013.4 0.0
02/08:30am 13.4 9.7 6.5 63 3.3 ENE 15 20 8 11 1013.5 1013.5 0.0
02/08:00am 12.3 9.4 6.6 68 2.7 ENE 11 17 6 9 1013.9 1013.9 0.0
02/07:30am 9.4 6.5 6.7 83 1.3 ESE 11 13 6 7 1013.8 1013.8 0.0
02/07:00am 9.3 6.3 6.2 81 1.4 E 11 13 6 7 1013.9 1013.9 0.0
02/06:30am 9.3 6.3 5.9 79 1.6 E 11 15 6 8 1013.8 1013.8 0.0
02/06:00am 10.4 6.1 5.4 71 2.3 ENE 17 22 9 12 1013.5 1013.5 0.0
02/05:30am 9.3 6.2 5.7 78 1.7 E 11 15 6 8 1013.6 1013.6 0.0
02/05:00am 9.4 5.2 5.9 79 1.6 E 17 19 9 10 1013.4 1013.4 0.0
02/04:30am 8.2 4.9 6.2 87 0.9 ESE 13 15 7 8 1013.6 1013.6 0.0
02/04:00am 7.1 3.8 6.4 95 0.3 ENE 13 15 7 8 1013.9 1013.9 0.0
02/03:30am 6.6 3.2 5.9 95 0.3 E 13 15 7 8 1014.4 1014.4 0.0
02/03:00am 6.9 3.6 6.2 95 0.3 ESE 13 17 7 9 1014.5 1014.5 0.0
02/02:30am 6.8 3.0 5.7 93 0.5 E 15 17 8 9 1014.9 1014.9 0.0
02/02:00am 6.9 3.5 6.0 94 0.4 E 13 15 7 8 1015.2 1015.2 0.0
02/01:30am 6.6 3.1 5.4 92 0.5 ESE 13 17 7 9 1015.5 1015.5 0.0
02/01:00am 7.4 3.7 6.2 92 0.5 ESE 15 17 8 9 1015.5 1015.5 0.0
02/12:30am 6.3 2.8 5.4 94 0.4 E 13 15 7 8 1015.8 1015.7 0.0
02/12:00am 6.2 3.0 5.0 92 0.5 E 11 13 6 7 1016.2 1016.2 0.0
 
Date/Time
EST
Temp
°C
App
Temp
°C
Dew
Point
Rel
Hum
%
Delta-T
°C
Wind Press
QNH
hPa
Press
MSL
hPa
Rain
since 9 am
mm
Dir
 
Spd
km/h
Gust
km/h
Spd
kts
Gust
kts
01/11:30pm 7.1 3.7 5.7 91 0.6 E 13 15 7 8 1016.1 1016.1 0.0
01/11:00pm 7.5 3.8 6.4 93 0.5 E 15 17 8 9 1016.0 1016.0 0.0
01/10:30pm 7.4 3.7 6.2 92 0.5 E 15 17 8 9 1016.0 1016.0 0.0
01/10:00pm 7.6 3.9 6.2 91 0.6 E 15 17 8 9 1015.9 1015.9 0.0
01/09:30pm 7.6 4.3 6.2 91 0.6 E 13 15 7 8 1015.8 1015.7 0.0
01/09:00pm 8.3 4.7 6.8 90 0.7 ESE 15 17 8 9 1015.8 1015.7 0.0
01/08:30pm 8.3 5.5 5.2 81 1.4 E 9 15 5 8 1015.9 1015.9 0.0
01/08:00pm 9.1 6.8 5.8 80 1.5 ENE 7 7 4 4 1015.5 1015.5 0.0
01/07:30pm 8.1 6.6 5.2 82 1.3 NE 2 11 1 6 1015.2 1015.2 0.0
01/07:00pm 9.5 8.6 5.9 78 1.7 CALM 0 0 0 0 1015.1 1015.1 0.0
01/06:30pm 10.0 9.0 5.6 74 2.0 CALM 0 0 0 0 1015.0 1015.0 0.0
01/06:00pm 10.1 9.1 5.5 73 2.1 CALM 0 0 0 0 1014.8 1014.8 0.0
01/05:30pm 13.8 11.5 4.9 55 4.2 NNW 6 7 3 4 1014.8 1014.8 0.0
01/05:00pm 15.0 13.0 6.3 56 4.2 NNW 6 11 3 6 1014.8 1014.8 0.0
01/04:30pm 15.9 14.3 4.6 47 5.3 NNW 2 11 1 6 1014.7 1014.7 0.0
01/04:00pm 16.1 13.4 3.9 44 5.7 NNW 7 17 4 9 1014.9 1014.9 0.0
01/03:30pm 16.8 14.7 5.7 48 5.4 NNW 6 15 3 8 1015.1 1015.1 0.0
01/03:00pm 16.4 14.5 4.8 46 5.5 NW 4 13 2 7 1015.4 1015.4 0.0
01/02:30pm 16.2 12.5 4.3 45 5.6 WNW 13 20 7 11 1015.6 1015.6 0.0
01/02:00pm 15.9 13.4 4.6 47 5.3 NNW 7 19 4 10 1015.9 1015.9 0.0
01/01:30pm 15.3 12.9 5.2 51 4.8 W 7 17 4 9 1016.3 1016.3 0.0
01/01:00pm 15.6 11.5 6.3 54 4.5 WNW 17 30 9 16 1016.6 1016.6 0.0
01/12:30pm 14.9 11.3 4.9 51 4.7 WNW 13 22 7 12 1017.1 1017.1 0.0
01/12:00pm 14.3 10.9 4.0 50 4.7 WNW 11 17 6 9 1017.6 1017.6 0.0
01/11:30am 14.2 11.0 5.3 55 4.2 WNW 11 20 6 11 1017.6 1017.6 0.0
01/11:00am 13.0 10.0 6.1 63 3.3 WNW 11 17 6 9 1018.0 1018.0 0.0
01/10:30am 12.3 9.3 6.1 66 2.9 NW 11 17 6 9 1018.2 1018.2 0.0
01/10:00am 11.5 9.4 6.0 69 2.6 NW 6 11 3 6 1018.4 1018.4 0.0
01/09:30am 10.4 9.5 7.6 83 1.4 NNW 2 7 1 4 1018.3 1018.4 0.0
01/09:00am 8.6 6.9 7.7 94 0.4 N 6 9 3 5 1018.5 1018.7 0.0
01/08:30am 6.9 4.9 6.9 100 0.0 NNW 7 9 4 5 1018.6 1018.8 0.0
01/08:00am 4.4 3.2 4.4 100 0.0 CALM 0 0 0 0 1018.5 1018.7 0.0
01/07:30am 1.8 0.1 1.8 100 0.0 CALM 0 0 0 0 1018.1 1018.2 0.0
01/07:00am 0.2 -1.8 0.1 99 0.0 CALM 0 0 0 0 1017.8 1017.9 0.0
01/06:30am 0.0 -2.0 -0.1 99 0.0 CALM 0 0 0 0 1017.7 1017.8 0.0
01/06:15am 0.2 -1.8 0.1 99 0.0 CALM 0 0 0 0 1017.6 1017.7 0.0
01/06:00am 0.7 -1.2 0.6 99 0.0 CALM 0 0 0 0 1017.3 1017.4 0.0
01/05:50am 0.9 -1.0 0.8 99 0.0 CALM 0 0 0 0 1017.2 1017.3 0.0
01/05:30am 0.6 -1.3 0.5 99 0.0 CALM 0 0 0 0 1017.1 1017.2 0.0
01/05:08am 1.1 -0.7 1.0 99 0.0 CALM 0 0 0 0 1017.0 1017.1 0.0
01/05:00am 1.3 -0.5 1.2 99 0.0 CALM 0 0 0 0 1017.0 1017.1 0.0
01/04:56am 1.2 -0.6 1.1 99 0.0 CALM 0 0 0 0 1017.0 1017.1 0.0
01/04:34am 1.8 0.1 1.7 99 0.0 CALM 0 0 0 0 1017.0 1017.1 0.0
01/04:30am 1.8 0.1 1.7 99 0.0 CALM 0 0 0 0 1017.0 1017.1 0.0
01/04:20am 1.1 -0.7 1.0 99 0.0 CALM 0 0 0 0 1017.0 1017.1 0.0
01/04:00am 1.2 -0.6 1.1 99 0.0 CALM 0 0 0 0 1017.1 1017.2 0.0
01/03:30am 1.5 -0.3 1.4 99 0.0 CALM 0 0 0 0 1017.3 1017.4 0.0
01/03:00am 1.7 0.0 1.6 99 0.0 CALM 0 0 0 0 1017.3 1017.4 0.0
01/02:30am 1.4 -0.8 1.3 99 0.0 WSW 2 6 1 3 1017.5 1017.6 0.0
01/02:00am 2.4 0.8 2.3 99 0.0 CALM 0 0 0 0 1017.7 1017.8 0.0
01/01:30am 2.2 0.5 2.1 99 0.0 CALM 0 0 0 0 1018.1 1018.2 0.0
01/01:00am 2.2 0.5 2.1 99 0.0 CALM 0 0 0 0 1018.1 1018.2 0.0
01/12:30am 2.3 0.7 2.2 99 0.0 CALM 0 0 0 0 1018.3 1018.4 0.0
01/12:00am 1.9 0.2 1.8 99 0.0 CALM 0 0 0 0 1018.4 1018.6 0.0
 
Date/Time
EST
Temp
°C
App
Temp
°C
Dew
Point
Rel
Hum
%
Delta-T
°C
Wind Press
QNH
hPa
Press
MSL
hPa
Rain
since 9 am
mm
Dir
 
Spd
km/h
Gust
km/h
Spd
kts
Gust
kts
31/11:30pm 3.1 1.6 3.0 99 0.0 CALM 0 0 0 0 1018.6 1018.8 0.0
31/11:00pm 3.2 1.7 3.1 99 0.0 CALM 0 0 0 0 1018.7 1018.9 0.0
31/10:30pm 3.6 2.2 3.5 99 0.0 CALM 0 6 0 3 1018.8 1019.0 0.0
31/10:00pm 4.1 2.8 4.0 99 0.0 CALM 0 0 0 0 1018.9 1019.1 0.0
31/09:30pm 4.2 2.9 4.1 99 0.0 CALM 0 0 0 0 1018.8 1019.0 0.0
31/09:00pm 5.4 4.3 5.3 99 0.0 CALM 0 0 0 0 1018.7 1018.9 0.0
31/08:30pm 5.6 4.6 5.5 99 0.0 CALM 0 0 0 0 1018.7 1018.9 0.0
31/08:00pm 5.9 4.4 5.2 95 0.3 N 2 6 1 3 1018.4 1018.6 0.0
31/07:30pm 6.5 5.5 5.5 93 0.4 CALM 0 0 0 0 1018.2 1018.3 0.0
31/07:00pm 7.4 6.3 5.0 85 1.1 CALM 0 0 0 0 1017.9 1018.0 0.0
31/06:30pm 9.2 7.1 5.6 78 1.6 W 6 7 3 4 1017.9 1018.0 0.0
31/06:00pm 10.5 7.3 5.3 70 2.4 WSW 11 13 6 7 1017.7 1017.8 0.0
31/05:30pm 12.4 8.2 5.6 63 3.2 WSW 17 20 9 11 1017.6 1017.7 0.0
31/05:00pm 13.4 9.2 5.8 60 3.6 WSW 17 22 9 12 1017.5 1017.6 0.0

Other Formats:

Comma delimited format used in spreadsheet applications
http://www.bom.gov.au/fwo/IDN60801/IDN60801.95704.axf

JavaScript Object Notation format (JSON) in row-major order
http://www.bom.gov.au/fwo/IDN60801/IDN60801.95704.json